Time;durP1;ratioP1;P1;durP2;ratioP2;P2;SDS_P1;SDS_P2;PMS_P1;PMS_P2;Temp;Humidity;BMP_temperature;BMP_pressure;BME280_temperature;BME280_humidity;BME280_pressure;Samples;Min_cycle;Max_cycle;Signal;HPM_P1;HPM_P2
2022/07/30 00:00:09;;;;;;;11.55;4.90;;;15.50;99.90;;;;;;4946725;28;20043;-91
2022/07/30 00:02:35;;;;;;;8.10;4.78;;;15.50;99.90;;;;;;4964581;28;20136;-92
2022/07/30 00:05:01;;;;;;;13.40;5.10;;;15.40;99.90;;;;;;4932319;28;20039;-92
2022/07/30 00:07:27;;;;;;;6.63;4.60;;;16.00;99.90;;;;;;4931372;28;20356;-91
2022/07/30 00:09:53;;;;;;;7.18;4.20;;;15.60;99.90;;;;;;4964167;28;20247;-91
2022/07/30 00:12:18;;;;;;;9.77;5.43;;;15.40;99.90;;;;;;4947490;28;20039;-91
2022/07/30 00:14:44;;;;;;;8.60;4.45;;;15.40;99.90;;;;;;4932237;28;20413;-92
2022/07/30 00:17:10;;;;;;;17.55;5.75;;;15.80;99.90;;;;;;4947023;28;20042;-91
2022/07/30 00:19:35;;;;;;;6.45;4.13;;;15.40;99.90;;;;;;4964340;28;20073;-91
2022/07/30 00:22:01;;;;;;;14.48;4.78;;;16.10;99.90;;;;;;4931600;28;20047;-91
2022/07/30 00:24:27;;;;;;;7.43;4.50;;;15.30;99.90;;;;;;4931041;28;20054;-90
2022/07/30 00:27:02;;;;;;;13.45;5.80;;;15.30;99.90;;;;;;4948304;28;20204;-91
2022/07/30 00:29:27;;;;;;;7.53;4.68;;;15.20;99.90;;;;;;4962884;28;20063;-91
2022/07/30 00:31:53;;;;;;;9.88;5.35;;;15.20;99.90;;;;;;4948120;28;20043;-92
2022/07/30 00:34:19;;;;;;;9.70;5.38;;;15.20;99.90;;;;;;4962614;28;20049;-91
2022/07/30 00:36:44;;;;;;;6.68;4.85;;;15.10;99.90;;;;;;4947792;28;20119;-91
2022/07/30 00:39:10;;;;;;;11.38;5.22;;;15.10;99.90;;;;;;4963636;28;20039;-91
2022/07/30 00:41:55;;;;;;;8.55;4.63;;;15.20;99.90;;;;;;4946905;28;20085;-90
2022/07/30 00:44:20;;;;;;;6.30;4.05;;;15.10;99.90;;;;;;4948142;28;20510;-91
2022/07/30 00:46:46;;;;;;;9.00;4.93;;;15.10;99.90;;;;;;4947045;28;20158;-91
2022/07/30 00:49:12;;;;;;;5.30;4.28;;;15.30;99.90;;;;;;4949395;28;20133;-91
2022/07/30 00:51:37;;;;;;;5.40;4.10;;;15.70;99.90;;;;;;4965165;28;20047;-90
2022/07/30 00:54:03;;;;;;;8.20;4.80;;;15.00;99.90;;;;;;4949007;28;20082;-91
2022/07/30 00:56:29;;;;;;;6.90;4.28;;;15.00;99.90;;;;;;4952356;28;20082;-91
2022/07/30 00:58:55;;;;;;;6.90;4.07;;;15.00;99.90;;;;;;4962591;28;20046;-90
2022/07/30 01:01:20;;;;;;;6.22;4.22;;;15.00;99.90;;;;;;4948190;28;20042;-90
2022/07/30 01:03:46;;;;;;;8.07;5.07;;;14.90;99.90;;;;;;4961977;28;20486;-91
2022/07/30 01:06:12;;;;;;;9.35;4.10;;;14.90;99.90;;;;;;4947626;28;20078;-90
2022/07/30 01:08:37;;;;;;;8.13;4.95;;;14.90;99.90;;;;;;4946348;28;20054;-91
2022/07/30 01:11:03;;;;;;;7.15;5.20;;;15.50;99.90;;;;;;4932719;28;20046;-91
2022/07/30 01:13:29;;;;;;;8.45;4.93;;;15.40;99.90;;;;;;4982405;28;20097;-90
2022/07/30 01:15:56;;;;;;;6.00;4.97;;;14.90;99.90;;;;;;4966449;28;20462;-91
2022/07/30 01:19:47;;;;;;;7.97;5.53;;;14.70;99.90;;;;;;4935273;28;20583;-91
2022/07/30 01:21:14;;;;;;;6.32;4.72;;;14.80;99.90;;;;;;4952362;28;20485;-91
2022/07/30 01:23:44;;;;;;;7.85;4.75;;;14.80;99.90;;;;;;4950906;28;20047;-91
2022/07/30 01:26:13;;;;;;;8.68;5.13;;;15.70;99.90;;;;;;4965967;28;20047;-91
2022/07/30 01:28:47;;;;;;;7.75;5.32;;;15.80;99.90;;;;;;4934137;28;20039;-90
2022/07/30 01:31:14;;;;;;;7.07;4.78;;;14.70;99.90;;;;;;4966419;28;20049;-92
2022/07/30 01:33:44;;;;;;;6.85;4.60;;;16.00;99.90;;;;;;4934302;28;20309;-90
2022/07/30 01:36:13;;;;;;;8.50;5.28;;;14.70;99.90;;;;;;4950189;28;20500;-90
2022/07/30 01:38:41;;;;;;;8.85;5.72;;;14.70;99.90;;;;;;4965284;28;20047;-92
2022/07/30 01:41:08;;;;;;;12.68;5.22;;;14.70;99.90;;;;;;4950426;28;20051;-92
2022/07/30 01:43:35;;;;;;;6.85;4.82;;;14.70;99.90;;;;;;4950041;28;20104;-91
2022/07/30 01:46:02;;;;;;;7.38;4.53;;;14.60;99.90;;;;;;4965704;28;20414;-91
2022/07/30 01:48:29;;;;;;;5.60;4.78;;;15.70;99.90;;;;;;4934327;28;20604;-91
2022/07/30 01:50:59;;;;;;;6.90;5.18;;;14.60;99.90;;;;;;4965119;28;20097;-91
2022/07/30 01:53:28;;;;;;;9.25;5.18;;;14.60;99.90;;;;;;4966301;28;20101;-90
2022/07/30 01:55:56;;;;;;;10.00;6.18;;;15.30;99.90;;;;;;4950026;28;20121;-91
2022/07/30 01:58:26;;;;;;;7.45;5.28;;;14.50;99.90;;;;;;4950611;28;20444;-91
2022/07/30 02:00:59;;;;;;;5.88;5.13;;;14.50;99.90;;;;;;4950503;28;20043;-91
2022/07/30 02:03:26;;;;;;;7.70;4.65;;;14.50;99.90;;;;;;4965173;28;20058;-91
2022/07/30 02:05:57;;;;;;;9.52;5.60;;;14.20;99.90;;;;;;4965944;28;20061;-91
2022/07/30 02:08:50;;;;;;;9.10;5.80;;;14.40;99.90;;;;;;4964766;28;20054;-91
2022/07/30 02:14:04;;;;;;;7.35;5.65;;;14.40;99.90;;;;;;4966386;28;20050;-92
2022/07/30 02:16:35;;;;;;;7.28;5.72;;;14.20;99.90;;;;;;4964520;28;20050;-91
2022/07/30 02:19:11;;;;;;;8.70;6.07;;;15.20;99.90;;;;;;4949844;28;20043;-90
2022/07/30 02:21:44;;;;;;;11.45;6.10;;;14.30;99.90;;;;;;4948421;28;20509;-91
2022/07/30 02:24:13;;;;;;;7.15;5.80;;;14.30;99.90;;;;;;4965310;28;20061;-91
2022/07/30 02:26:41;;;;;;;18.80;6.78;;;14.20;99.90;;;;;;4949364;28;20058;-90
2022/07/30 02:29:09;;;;;;;7.68;5.47;;;14.60;99.90;;;;;;4964477;28;20486;-91
2022/07/30 02:31:37;;;;;;;6.32;5.43;;;14.20;99.90;;;;;;4965629;28;20483;-91
2022/07/30 02:34:05;;;;;;;7.97;5.57;;;14.20;99.90;;;;;;4965046;28;20039;-90
2022/07/30 02:36:32;;;;;;;7.68;5.70;;;14.90;99.90;;;;;;4949468;28;20130;-91
2022/07/30 02:39:00;;;;;;;7.72;5.45;;;14.20;99.90;;;;;;4948263;28;20054;-90
2022/07/30 02:41:28;;;;;;;5.85;4.30;;;14.20;99.90;;;;;;4949411;28;20386;-91
2022/07/30 02:43:55;;;;;;;10.43;4.45;;;14.50;99.90;;;;;;4965338;28;20047;-90
2022/07/30 02:46:23;;;;;;;13.52;5.55;;;14.10;99.90;;;;;;4948210;28;20092;-90
2022/07/30 02:48:52;;;;;;;8.40;4.75;;;14.10;99.90;;;;;;4965006;28;20142;-90
2022/07/30 02:51:18;;;;;;;6.15;4.80;;;14.10;99.90;;;;;;4963903;28;20182;-91
2022/07/30 02:53:47;;;;;;;8.50;5.03;;;14.10;99.90;;;;;;4949223;28;20501;-92
2022/07/30 02:56:14;;;;;;;8.02;5.22;;;14.10;99.90;;;;;;4948323;28;20049;-91
2022/07/30 02:58:42;;;;;;;8.95;5.03;;;14.10;99.90;;;;;;4964327;28;20080;-91
2022/07/30 03:01:12;;;;;;;6.85;4.47;;;14.90;99.90;;;;;;4949550;28;20047;-91
2022/07/30 03:03:39;;;;;;;4.82;4.28;;;14.00;99.90;;;;;;4948188;28;20218;-90
2022/07/30 03:06:06;;;;;;;6.28;5.07;;;14.40;99.90;;;;;;4965644;28;20414;-90
2022/07/30 03:08:33;;;;;;;8.63;4.55;;;14.00;99.90;;;;;;4932919;28;20057;-89
2022/07/30 03:11:00;;;;;;;10.32;5.20;;;14.00;99.90;;;;;;4965452;28;20055;-91
2022/07/30 03:13:26;;;;;;;11.15;6.38;;;14.80;99.90;;;;;;4964780;28;20371;-90
2022/07/30 03:15:55;;;;;;;7.90;6.13;;;14.10;99.90;;;;;;4964153;28;20042;-89
2022/07/30 03:18:22;;;;;;;7.85;6.10;;;14.00;99.90;;;;;;4964854;28;20129;-90
2022/07/30 03:20:53;;;;;;;8.90;6.57;;;14.10;99.90;;;;;;4947693;28;20054;-91
2022/07/30 03:23:20;;;;;;;12.82;6.88;;;14.30;99.90;;;;;;4949019;28;20086;-90
2022/07/30 03:26:00;;;;;;;10.80;8.20;;;14.00;99.90;;;;;;4963680;28;20057;-90
2022/07/30 03:28:29;;;;;;;12.98;7.53;;;14.10;99.90;;;;;;4964513;28;20047;-90
2022/07/30 03:30:55;;;;;;;10.48;6.95;;;14.20;99.90;;;;;;4965098;28;20047;-91
2022/07/30 03:33:22;;;;;;;10.88;7.65;;;14.20;99.90;;;;;;4946551;28;20563;-91
2022/07/30 03:35:48;;;;;;;14.90;7.63;;;14.20;99.90;;;;;;4948708;28;20070;-91
2022/07/30 03:38:14;;;;;;;11.73;7.25;;;14.20;99.90;;;;;;4947285;28;20538;-90
2022/07/30 03:40:42;;;;;;;8.80;6.68;;;14.20;99.90;;;;;;4965031;28;20046;-91
2022/07/30 03:43:11;;;;;;;9.18;6.22;;;13.10;99.90;;;;;;4947410;28;20088;-90
2022/07/30 03:45:40;;;;;;;9.98;6.30;;;14.10;99.90;;;;;;4947859;28;20051;-90
2022/07/30 03:48:08;;;;;;;8.25;6.15;;;14.20;99.90;;;;;;4932622;28;20098;-92
2022/07/30 03:50:38;;;;;;;8.25;6.38;;;14.10;99.90;;;;;;4963967;28;20586;-90
2022/07/30 03:53:05;;;;;;;9.00;6.32;;;14.50;99.90;;;;;;4949105;28;20043;-91
2022/07/30 03:55:32;;;;;;;10.27;6.40;;;14.00;99.90;;;;;;4947736;28;20039;-90
2022/07/30 03:58:00;;;;;;;10.20;6.28;;;14.00;99.90;;;;;;4964783;28;20284;-90
2022/07/30 04:00:26;;;;;;;10.85;6.60;;;14.00;99.90;;;;;;4964351;28;20047;-91
2022/07/30 04:02:53;;;;;;;10.30;6.55;;;14.00;99.90;;;;;;4963805;28;20129;-90
2022/07/30 04:05:18;;;;;;;10.10;5.82;;;14.00;99.90;;;;;;4964715;28;20039;-91
2022/07/30 04:07:44;;;;;;;7.20;5.88;;;14.00;99.90;;;;;;4948033;28;20047;-92
2022/07/30 04:10:10;;;;;;;9.82;6.20;;;14.00;99.90;;;;;;4933388;28;20038;-91
2022/07/30 04:12:36;;;;;;;9.70;6.30;;;14.00;99.90;;;;;;4964433;28;20039;-91
2022/07/30 04:15:02;;;;;;;11.02;6.85;;;14.00;99.90;;;;;;4964787;28;20051;-90
2022/07/30 04:17:37;;;;;;;11.32;7.95;;;14.00;99.90;;;;;;4932189;28;20506;-92
2022/07/30 04:20:29;;;;;;;10.32;7.47;;;14.00;99.90;;;;;;4947423;28;20106;-91
2022/07/30 04:22:56;;;;;;;7.85;5.22;;;14.10;99.90;;;;;;4948031;28;20098;-86
2022/07/30 04:25:23;;;;;;;11.05;6.80;;;14.10;99.90;;;;;;4930340;28;20397;-84
2022/07/30 04:27:49;;;;;;;10.18;7.43;;;14.10;99.90;;;;;;4947083;28;20054;-86
2022/07/30 04:30:15;;;;;;;9.00;7.07;;;15.20;99.90;;;;;;4962084;28;20154;-86
2022/07/30 04:32:41;;;;;;;9.70;7.53;;;14.10;99.90;;;;;;4930869;28;20063;-85
2022/07/30 04:35:07;;;;;;;12.05;8.02;;;14.10;99.90;;;;;;4930897;28;20039;-85
2022/07/30 04:37:33;;;;;;;10.07;7.10;;;14.20;99.90;;;;;;4962377;28;20089;-85
2022/07/30 04:39:59;;;;;;;9.70;7.68;;;14.40;99.90;;;;;;4931293;28;20078;-86
2022/07/30 04:42:27;;;;;;;7.90;6.55;;;14.20;99.90;;;;;;4946326;28;20381;-85
2022/07/30 04:44:54;;;;;;;9.18;7.25;;;14.20;99.90;;;;;;4947103;28;20047;-85
2022/07/30 04:47:20;;;;;;;12.13;7.25;;;14.20;99.90;;;;;;4964748;28;20054;-85
2022/07/30 04:49:47;;;;;;;10.07;6.15;;;14.20;99.90;;;;;;4949419;28;20055;-84
2022/07/30 04:52:14;;;;;;;11.02;7.25;;;14.60;99.90;;;;;;4949767;28;20148;-85
2022/07/30 04:54:49;;;;;;;10.52;7.57;;;14.30;99.90;;;;;;4981148;28;20047;-85
2022/07/30 04:57:16;;;;;;;10.15;6.70;;;14.30;99.90;;;;;;4966154;28;20051;-84
2022/07/30 04:59:42;;;;;;;12.40;8.25;;;14.40;99.90;;;;;;4964802;28;20043;-85
2022/07/30 05:02:09;;;;;;;10.98;6.35;;;14.40;99.90;;;;;;4950498;28;20452;-84
2022/07/30 05:04:36;;;;;;;10.75;7.05;;;14.50;99.90;;;;;;4933150;28;20047;-83
2022/07/30 05:07:02;;;;;;;12.57;8.95;;;15.30;99.90;;;;;;4965438;28;20497;-83
2022/07/30 05:09:29;;;;;;;10.85;8.02;;;14.60;99.90;;;;;;4965662;28;20050;-85
2022/07/30 05:11:56;;;;;;;12.05;7.53;;;14.70;99.90;;;;;;4964902;28;20087;-85
2022/07/30 05:14:23;;;;;;;10.95;8.30;;;14.80;99.90;;;;;;4966513;28;20051;-85
2022/07/30 05:16:49;;;;;;;16.65;9.32;;;14.80;99.90;;;;;;4964645;28;20126;-84
2022/07/30 05:19:16;;;;;;;17.17;8.88;;;14.90;99.90;;;;;;4950017;28;20050;-85
2022/07/30 05:21:41;;;;;;;12.65;8.77;;;15.00;99.90;;;;;;4997687;28;20458;-84
2022/07/30 05:24:07;;;;;;;12.80;8.27;;;15.10;99.90;;;;;;4949847;28;20065;-85
2022/07/30 05:26:33;;;;;;;11.13;8.38;;;15.20;99.90;;;;;;4933634;28;20494;-85
2022/07/30 05:28:59;;;;;;;15.85;8.02;;;15.30;99.90;;;;;;4949064;28;20046;-84
2022/07/30 05:31:25;;;;;;;12.52;8.68;;;15.40;99.90;;;;;;4949912;28;20049;-85
2022/07/30 05:33:51;;;;;;;13.23;8.40;;;15.50;99.90;;;;;;4932749;28;20039;-85
2022/07/30 05:36:18;;;;;;;13.18;9.43;;;15.70;99.90;;;;;;4965795;28;20043;-85
2022/07/30 05:38:44;;;;;;;14.50;9.30;;;15.70;99.90;;;;;;4948265;28;20092;-85
2022/07/30 05:41:10;;;;;;;10.52;9.07;;;15.80;99.90;;;;;;4933282;28;20086;-85
2022/07/30 05:43:36;;;;;;;16.67;10.10;;;15.80;99.90;;;;;;4965122;28;20077;-85
2022/07/30 05:46:02;;;;;;;15.77;10.05;;;16.00;99.90;;;;;;4948913;28;20083;-85
2022/07/30 05:48:30;;;;;;;15.80;9.85;;;16.30;99.90;;;;;;4965204;28;20059;-85
2022/07/30 05:50:56;;;;;;;14.07;9.65;;;16.20;99.90;;;;;;4948295;28;20055;-85
2022/07/30 05:53:21;;;;;;;14.93;9.95;;;16.20;99.90;;;;;;4949378;28;20046;-85
2022/07/30 05:55:47;;;;;;;19.38;9.98;;;16.40;99.90;;;;;;4948158;28;20104;-85
2022/07/30 05:58:13;;;;;;;16.40;10.57;;;16.50;99.90;;;;;;4964973;28;20074;-85
2022/07/30 06:00:38;;;;;;;15.30;10.07;;;16.70;99.90;;;;;;4948849;28;20118;-85
2022/07/30 06:03:04;;;;;;;15.98;10.20;;;16.80;99.90;;;;;;4948069;28;20046;-85
2022/07/30 06:05:31;;;;;;;14.93;9.82;;;16.90;99.90;;;;;;4949388;28;20050;-85
2022/07/30 06:07:57;;;;;;;12.55;10.38;;;17.10;99.90;;;;;;4964178;28;20494;-85
2022/07/30 06:10:23;;;;;;;15.38;10.38;;;17.10;99.90;;;;;;4949996;28;20480;-85
2022/07/30 06:12:49;;;;;;;13.27;9.38;;;17.30;99.90;;;;;;4948120;28;20042;-85
2022/07/30 06:15:14;;;;;;;12.23;9.65;;;17.40;99.90;;;;;;4982174;28;20517;-85
2022/07/30 06:17:45;;;;;;;18.95;9.52;;;17.40;99.90;;;;;;4964814;28;20042;-85
2022/07/30 06:20:13;;;;;;;14.93;10.55;;;17.60;99.90;;;;;;4932739;28;20398;-85
2022/07/30 06:22:38;;;;;;;13.18;8.95;;;17.70;99.90;;;;;;4965012;28;20054;-85
2022/07/30 06:25:05;;;;;;;13.68;10.07;;;17.70;99.90;;;;;;4948494;28;20051;-85
2022/07/30 06:27:32;;;;;;;12.20;8.70;;;17.80;99.90;;;;;;4949253;28;20510;-85
2022/07/30 06:29:59;;;;;;;14.40;8.85;;;17.90;99.90;;;;;;4932474;28;20054;-85
2022/07/30 06:32:25;;;;;;;15.00;9.40;;;18.00;99.90;;;;;;4965853;28;20103;-85
2022/07/30 06:34:50;;;;;;;14.88;9.02;;;18.10;99.90;;;;;;4965248;28;20440;-85
2022/07/30 06:37:16;;;;;;;13.18;9.70;;;18.20;99.90;;;;;;4965059;28;20383;-86
2022/07/30 06:39:42;;;;;;;11.65;8.38;;;18.20;99.90;;;;;;4964741;28;20144;-85
2022/07/30 06:42:08;;;;;;;12.00;8.40;;;18.30;99.90;;;;;;4947628;28;20050;-86
2022/07/30 06:44:33;;;;;;;12.52;8.50;;;18.40;99.90;;;;;;4981537;28;20100;-85
2022/07/30 06:46:59;;;;;;;9.93;7.70;;;18.50;99.90;;;;;;4964218;28;20424;-85
2022/07/30 06:49:25;;;;;;;14.30;7.80;;;18.50;99.90;;;;;;4948654;28;20490;-86
2022/07/30 06:51:51;;;;;;;11.20;6.80;;;18.70;99.90;;;;;;4963837;28;20047;-85
2022/07/30 06:54:17;;;;;;;20.13;8.05;;;18.80;99.90;;;;;;4948277;28;20134;-85
2022/07/30 06:56:42;;;;;;;10.48;7.57;;;18.90;99.90;;;;;;4964278;28;20058;-85
2022/07/30 06:59:08;;;;;;;18.42;8.57;;;19.00;99.90;;;;;;4947612;28;20042;-85
2022/07/30 07:01:34;;;;;;;13.98;8.18;;;19.10;99.90;;;;;;4964768;28;20054;-86
2022/07/30 07:03:59;;;;;;;15.20;7.90;;;19.20;99.90;;;;;;4947129;28;20047;-85
2022/07/30 07:06:25;;;;;;;9.93;6.82;;;19.30;99.90;;;;;;4980591;28;20086;-85
2022/07/30 07:08:51;;;;;;;10.98;7.25;;;19.30;99.90;;;;;;4946279;28;20163;-86
2022/07/30 07:11:16;;;;;;;14.23;7.88;;;19.50;99.90;;;;;;4963669;28;20101;-86
2022/07/30 07:13:42;;;;;;;10.55;7.50;;;19.50;99.90;;;;;;4964337;28;20042;-85
2022/07/30 07:16:08;;;;;;;10.88;7.53;;;19.60;99.90;;;;;;4964149;28;20053;-86
2022/07/30 07:18:33;;;;;;;9.85;7.22;;;19.70;99.90;;;;;;4935087;28;20106;-86
2022/07/30 07:20:59;;;;;;;11.88;7.82;;;19.80;99.90;;;;;;4948986;28;20057;-86
2022/07/30 07:23:25;;;;;;;13.10;7.22;;;19.90;99.90;;;;;;4950520;28;20074;-85
2022/07/30 07:25:51;;;;;;;13.25;7.20;;;20.00;99.90;;;;;;4964754;28;20494;-85
2022/07/30 07:28:17;;;;;;;11.25;7.45;;;20.10;99.90;;;;;;4948754;28;20059;-86
2022/07/30 07:30:43;;;;;;;12.68;6.63;;;20.30;99.90;;;;;;4949841;28;20368;-85
2022/07/30 07:33:09;;;;;;;15.65;6.90;;;20.30;99.90;;;;;;4964685;28;20177;-85
2022/07/30 07:35:35;;;;;;;12.88;6.65;;;20.50;99.90;;;;;;4949804;28;20082;-86
2022/07/30 07:38:01;;;;;;;14.73;9.38;;;20.50;99.90;;;;;;4964750;28;20160;-85
2022/07/30 07:40:27;;;;;;;12.98;6.07;;;20.70;99.90;;;;;;4981770;28;20587;-85
2022/07/30 07:42:52;;;;;;;11.65;6.43;;;20.80;99.90;;;;;;4964353;28;20049;-85
2022/07/30 07:45:18;;;;;;;14.32;6.90;;;20.90;99.90;;;;;;4949777;28;20043;-86
2022/07/30 07:47:46;;;;;;;12.23;5.75;;;21.00;99.90;;;;;;4964725;28;20100;-84
2022/07/30 07:50:15;;;;;;;8.30;5.60;;;21.10;99.90;;;;;;4964423;28;20179;-84
2022/07/30 07:52:40;;;;;;;10.30;5.97;;;21.30;99.90;;;;;;4964831;28;20049;-84
2022/07/30 07:55:07;;;;;;;8.23;5.45;;;21.40;99.90;;;;;;4963974;28;20059;-84
2022/07/30 07:57:40;;;;;;;12.52;4.75;;;21.50;99.90;;;;;;4949121;28;20051;-84
2022/07/30 08:00:08;;;;;;;10.50;5.57;;;21.60;99.90;;;;;;4963698;28;20440;-83
2022/07/30 08:02:35;;;;;;;10.68;4.78;;;21.80;99.90;;;;;;4964035;28;20466;-84
2022/07/30 08:05:01;;;;;;;13.27;4.68;;;21.90;99.90;;;;;;4964384;28;20051;-85
2022/07/30 08:07:27;;;;;;;8.25;5.05;;;22.00;99.90;;;;;;4946667;28;20054;-84
2022/07/30 08:09:53;;;;;;;13.93;5.03;;;22.10;99.90;;;;;;4964610;28;20051;-85
2022/07/30 08:12:19;;;;;;;8.80;4.60;;;22.20;99.90;;;;;;4947637;28;20042;-85
2022/07/30 08:14:44;;;;;;;7.32;3.97;;;22.30;99.90;;;;;;4965079;28;20474;-84
2022/07/30 08:17:10;;;;;;;14.98;3.83;;;22.40;99.90;;;;;;4963607;28;20085;-85
2022/07/30 08:19:36;;;;;;;8.77;3.70;;;22.40;99.90;;;;;;4949180;28;20517;-85
2022/07/30 08:22:02;;;;;;;9.27;3.97;;;22.60;99.90;;;;;;4951831;28;20039;-85
2022/07/30 08:24:28;;;;;;;6.57;3.30;;;22.60;99.90;;;;;;4967725;28;20055;-85
2022/07/30 08:26:53;;;;;;;7.18;2.95;;;22.70;99.90;;;;;;4951613;28;20348;-85
2022/07/30 08:29:19;;;;;;;9.13;3.67;;;22.70;99.90;;;;;;4950890;28;20045;-84
2022/07/30 08:31:45;;;;;;;9.55;3.13;;;22.80;99.90;;;;;;4935332;28;20506;-85
2022/07/30 08:34:12;;;;;;;9.52;3.00;;;22.90;99.90;;;;;;4950204;28;20047;-85
2022/07/30 08:36:37;;;;;;;7.05;2.95;;;22.80;99.90;;;;;;4966255;28;20133;-85
2022/07/30 08:39:03;;;;;;;8.18;2.72;;;22.80;99.90;;;;;;4934021;28;20129;-85
2022/07/30 08:41:29;;;;;;;12.73;3.40;;;22.80;99.90;;;;;;4966040;28;20046;-84
2022/07/30 08:43:59;;;;;;;8.45;3.00;;;22.70;99.90;;;;;;4966429;28;20043;-85
2022/07/30 08:46:28;;;;;;;5.93;2.85;;;22.80;99.90;;;;;;4949751;28;20065;-85
2022/07/30 08:48:54;;;;;;;7.32;2.85;;;23.00;99.90;;;;;;4950099;28;20112;-85
2022/07/30 08:51:22;;;;;;;4.38;2.75;;;23.10;99.90;;;;;;4949420;28;20057;-85
2022/07/30 08:53:48;;;;;;;10.02;3.03;;;23.20;99.90;;;;;;4966291;28;20062;-85
2022/07/30 08:56:14;;;;;;;10.30;3.78;;;23.30;99.90;;;;;;4949808;28;20078;-84
2022/07/30 08:58:41;;;;;;;4.22;2.20;;;23.40;99.90;;;;;;4965422;28;20051;-85
2022/07/30 09:01:07;;;;;;;9.02;2.88;;;23.30;99.90;;;;;;4934527;28;20043;-85
2022/07/30 09:03:37;;;;;;;5.97;2.70;;;23.30;99.90;;;;;;4981636;28;20054;-85
2022/07/30 09:06:04;;;;;;;6.43;2.53;;;23.40;99.90;;;;;;4950522;28;20076;-85
2022/07/30 09:08:30;;;;;;;10.45;2.72;;;23.50;99.90;;;;;;4932913;28;20045;-85
2022/07/30 09:10:57;;;;;;;6.00;3.25;;;23.70;99.90;;;;;;4950144;28;20120;-85
2022/07/30 09:13:25;;;;;;;4.03;2.53;;;23.90;99.90;;;;;;4949892;28;20047;-85
2022/07/30 09:15:51;;;;;;;7.65;1.95;;;24.00;99.90;;;;;;4965079;28;20176;-85
2022/07/30 09:18:37;;;;;;;6.50;2.58;;;23.90;99.90;;;;;;4966113;28;20642;-85
2022/07/30 09:21:24;;;;;;;12.15;2.47;;;23.80;99.90;;;;;;4964474;28;20051;-85
2022/07/30 09:23:59;;;;;;;5.68;2.30;;;23.90;99.90;;;;;;4965581;28;20051;-84
2022/07/30 09:26:25;;;;;;;4.30;1.85;;;23.90;99.90;;;;;;4966073;28;20130;-85
2022/07/30 09:28:52;;;;;;;7.15;1.95;;;24.00;99.90;;;;;;4965041;28;20082;-84
2022/07/30 09:31:19;;;;;;;6.20;2.03;;;24.00;99.90;;;;;;4949751;28;20050;-85
2022/07/30 09:33:45;;;;;;;7.35;2.05;;;24.10;99.90;;;;;;4965012;28;20069;-85
2022/07/30 09:36:15;;;;;;;3.47;1.63;;;24.10;99.90;;;;;;4949765;28;20043;-85
2022/07/30 09:38:44;;;;;;;8.55;2.60;;;24.20;99.90;;;;;;4948747;28;20066;-85
2022/07/30 09:41:10;;;;;;;6.57;2.13;;;24.20;99.90;;;;;;4949029;28;20082;-85
2022/07/30 09:43:51;;;;;;;15.15;2.05;;;24.10;99.90;;;;;;4949069;28;20050;-85
2022/07/30 09:46:17;;;;;;;4.22;2.03;;;24.00;99.90;;;;;;4948511;28;20043;-85
2022/07/30 09:48:45;;;;;;;3.50;1.65;;;24.20;99.90;;;;;;4965481;28;20058;-85
2022/07/30 09:51:11;;;;;;;5.53;1.98;;;24.30;99.90;;;;;;4948287;28;20137;-85
2022/07/30 09:53:57;;;;;;;6.22;1.92;;;24.40;99.90;;;;;;4949560;28;20047;-85
2022/07/30 09:56:28;;;;;;;3.67;1.80;;;24.60;99.90;;;;;;4965620;28;20055;-85
2022/07/30 09:58:54;;;;;;;7.18;2.10;;;24.70;99.90;;;;;;4964644;28;20074;-85
2022/07/30 10:01:20;;;;;;;7.30;2.03;;;24.70;99.90;;;;;;4968991;28;20047;-85
2022/07/30 10:03:46;;;;;;;5.28;1.45;;;24.70;99.90;;;;;;4948390;28;20047;-85
2022/07/30 10:06:12;;;;;;;4.03;1.33;;;24.70;99.90;;;;;;4949275;28;20496;-85
2022/07/30 10:08:39;;;;;;;5.03;1.60;;;24.60;99.90;;;;;;4932399;28;20464;-85
2022/07/30 10:11:05;;;;;;;7.22;1.50;;;24.70;99.90;;;;;;4948508;28;20510;-85
2022/07/30 10:13:34;;;;;;;8.73;1.55;;;24.60;99.90;;;;;;4948859;28;20050;-85
2022/07/30 10:15:59;;;;;;;6.35;1.35;;;24.70;99.90;;;;;;4948313;28;20129;-85
2022/07/30 10:18:27;;;;;;;5.38;1.60;;;24.80;99.90;;;;;;4933463;28;20197;-85
2022/07/30 10:20:53;;;;;;;4.97;1.60;;;24.90;99.90;;;;;;4947889;28;20039;-85
2022/07/30 10:23:19;;;;;;;4.80;1.60;;;24.90;99.90;;;;;;4948923;28;20494;-85
2022/07/30 10:25:46;;;;;;;6.95;2.38;;;25.20;99.90;;;;;;4947632;28;20051;-85
2022/07/30 10:28:12;;;;;;;5.03;1.40;;;25.30;99.90;;;;;;4932561;28;20043;-85
2022/07/30 10:30:39;;;;;;;5.38;1.38;;;25.40;99.90;;;;;;4948875;28;20042;-85
2022/07/30 10:33:07;;;;;;;3.28;1.40;;;25.50;99.90;;;;;;4947725;28;20053;-85
2022/07/30 10:35:32;;;;;;;5.18;1.25;;;25.60;99.90;;;;;;4964943;28;20061;-85
2022/07/30 10:37:58;;;;;;;6.72;2.17;;;25.70;99.90;;;;;;4947911;28;20039;-85
2022/07/30 10:40:30;;;;;;;5.05;1.45;;;25.70;99.90;;;;;;4965652;28;20104;-85
2022/07/30 10:43:10;;;;;;;2.47;1.25;;;25.80;99.90;;;;;;4963982;28;20035;-85
2022/07/30 10:45:49;;;;;;;5.00;1.67;;;25.90;99.90;;;;;;4963759;28;20054;-84
2022/07/30 10:48:17;;;;;;;4.82;1.27;;;26.10;99.90;;;;;;4948652;28;20067;-85
2022/07/30 10:50:56;;;;;;;6.00;1.15;;;26.20;99.90;;;;;;4963241;28;20050;-85
2022/07/30 10:53:32;;;;;;;5.63;1.58;;;26.40;98.90;;;;;;4932602;28;20579;-85
2022/07/30 10:56:31;;;;;;;4.18;1.23;;;26.50;97.70;;;;;;4948221;28;20410;-85
2022/07/30 10:58:56;;;;;;;6.25;1.42;;;26.60;98.60;;;;;;5012417;28;20097;-85
2022/07/30 11:01:22;;;;;;;3.35;1.35;;;26.70;99.70;;;;;;4948887;28;20082;-85
2022/07/30 11:04:25;;;;;;;3.78;1.52;;;26.70;99.60;;;;;;4963445;28;20084;-85
2022/07/30 11:07:01;;;;;;;3.78;1.55;;;26.60;97.30;;;;;;4994396;28;20048;-85
2022/07/30 11:09:42;;;;;;;9.57;1.30;;;26.50;99.20;;;;;;4955824;28;20058;-85
2022/07/30 11:12:08;;;;;;;7.75;1.95;;;26.20;98.40;;;;;;4965059;28;20083;-85
2022/07/30 11:14:46;;;;;;;4.00;1.25;;;26.00;99.40;;;;;;4949493;28;20039;-85
2022/07/30 11:17:14;;;;;;;5.18;1.50;;;25.90;99.10;;;;;;4964584;28;20058;-85
2022/07/30 11:20:06;;;;;;;4.63;1.35;;;25.90;99.40;;;;;;4948691;28;20575;-85
2022/07/30 11:22:39;;;;;;;6.85;1.58;;;25.90;98.90;;;;;;4948695;28;20078;-85
2022/07/30 11:25:20;;;;;;;3.35;1.65;;;25.80;99.90;;;;;;4948090;28;20055;-85
2022/07/30 11:27:51;;;;;;;6.10;1.73;;;25.80;99.30;;;;;;4964992;28;20587;-85
2022/07/30 11:30:17;;;;;;;9.52;1.80;;;25.80;99.60;;;;;;4964959;28;20406;-84
2022/07/30 11:32:48;;;;;;;5.40;1.40;;;25.90;99.50;;;;;;4965008;28;20046;-85
2022/07/30 11:35:33;;;;;;;6.85;1.65;;;25.90;99.60;;;;;;4964297;28;20125;-85
2022/07/30 11:37:59;;;;;;;6.57;2.25;;;25.90;99.80;;;;;;4963313;28;20050;-85
2022/07/30 11:40:48;;;;;;;8.93;1.95;;;26.00;99.50;;;;;;4965051;28;20035;-84
2022/07/30 11:43:31;;;;;;;8.23;1.58;;;26.30;99.00;;;;;;5024468;28;20494;-85
2022/07/30 11:46:16;;;;;;;7.05;1.30;;;26.50;98.80;;;;;;4947604;28;20100;-85
2022/07/30 11:49:07;;;;;;;5.75;1.48;;;26.50;96.60;;;;;;4948248;28;20055;-85
2022/07/30 11:51:46;;;;;;;7.32;1.38;;;26.40;96.60;;;;;;4947562;28;20058;-85
2022/07/30 11:54:12;;;;;;;3.85;1.48;;;26.30;97.10;;;;;;4963631;28;20097;-85
2022/07/30 11:56:53;;;;;;;5.88;1.15;;;26.40;97.70;;;;;;4964571;28;20047;-85
2022/07/30 11:59:19;;;;;;;3.50;1.23;;;26.60;96.90;;;;;;4947587;28;20046;-85
2022/07/30 12:01:52;;;;;;;3.83;1.08;;;26.70;96.50;;;;;;4948172;28;20081;-85
2022/07/30 12:04:18;;;;;;;4.50;0.90;;;26.70;94.50;;;;;;4962772;28;20120;-84
2022/07/30 12:06:46;;;;;;;5.38;1.50;;;26.50;94.90;;;;;;4948589;28;20476;-85
2022/07/30 12:09:19;;;;;;;2.08;0.80;;;26.30;95.30;;;;;;4948659;28;20051;-84
2022/07/30 12:11:45;;;;;;;2.40;1.10;;;26.20;95.60;;;;;;4981530;28;20055;-84
2022/07/30 12:14:12;;;;;;;6.15;1.30;;;26.00;95.30;;;;;;4950268;28;20578;-84
2022/07/30 12:16:41;;;;;;;4.38;1.20;;;25.90;94.80;;;;;;4948056;28;20100;-84
2022/07/30 12:19:06;;;;;;;2.15;1.10;;;25.80;94.80;;;;;;4965731;28;20065;-85
2022/07/30 12:21:33;;;;;;;6.38;1.80;;;25.60;96.60;;;;;;4933818;28;20562;-84
2022/07/30 12:24:01;;;;;;;6.85;1.38;;;25.60;97.80;;;;;;4949772;28;20047;-84
2022/07/30 12:26:31;;;;;;;4.38;1.30;;;25.60;98.70;;;;;;4966487;28;20573;-85
2022/07/30 12:29:00;;;;;;;6.45;1.77;;;25.80;98.90;;;;;;4932253;28;20269;-84
2022/07/30 12:31:26;;;;;;;10.00;1.77;;;26.20;98.30;;;;;;4964435;28;20056;-85
2022/07/30 12:33:55;;;;;;;3.90;1.25;;;26.50;98.20;;;;;;4962620;28;20496;-85
2022/07/30 12:36:33;;;;;;;4.05;1.50;;;26.70;98.10;;;;;;4963921;28;20042;-85
2022/07/30 12:39:01;;;;;;;8.10;1.73;;;26.70;96.80;;;;;;4963824;28;20077;-86
2022/07/30 12:41:44;;;;;;;2.42;0.80;;;26.70;96.40;;;;;;4963177;28;20081;-85
2022/07/30 12:44:34;;;;;;;4.00;1.30;;;26.60;94.10;;;;;;4965650;28;20047;-84
2022/07/30 12:47:00;;;;;;;4.20;1.80;;;26.50;96.10;;;;;;4965000;28;20126;-85
2022/07/30 12:49:30;;;;;;;5.30;1.42;;;26.40;97.10;;;;;;4964708;28;20573;-85
2022/07/30 12:51:56;;;;;;;2.63;1.10;;;26.20;97.60;;;;;;4947921;28;20039;-85